Valley Peak, Santa Cruz Island Reserve, California Weather observations

Data are for 10 minute period ending at time listed.
 Day   Time   Solar   Ave.   Ave.  Ave.  Vector  Max.   Baro.   Total    
  of    of     Rad.   Air    Rel.  Wind   Wind   Wind  Press.  Precip.   
Year   Day            Temp.  Hum.  Speed  Dir.   Gust                    
2016   (PST)  Kw/m2    F      %     mph   deg.    mph    mb.     in.     
-------------------------------------------------------------------------
  40   10:00   0.57   74.9    18   14.3    42    21.0   972.2    0.00 
  40   10:10   0.59   75.2    18   16.5    45    22.6   972.2    0.00 
  40   10:20   0.62   75.8    18   16.3    45    22.6   972.2    0.00 
  40   10:30   0.64   76.4    18   14.8    42    20.7   972.3    0.00 
  40   10:40   0.65   77.1    18   13.3    43    19.3   972.2    0.00 
  40   10:50   0.67   78.0    17   12.5    44    19.6   972.2    0.00 
  40   11:00   0.68   78.5    17   10.3    42    17.6   972.3    0.00 
  40   11:10   0.69   79.6    17    7.5    43    14.1   972.2    0.00 
  40   11:20   0.71   80.9    17    8.3    48    13.8   972.1    0.00 
  40   11:30   0.71   82.5    16    8.0    52    15.4   972.1    0.00 
  40   11:40   0.72   82.7    15    7.0    51    13.7   972.0    0.00 
  40   11:50   0.72   82.9    16    5.1    51    15.4   971.9    0.00 
  40   12:00   0.73   83.3    15    4.1    59    11.2   971.7    0.00 
  40   12:10   0.73   84.0    15    4.9    57    10.4   971.6    0.00 
  40   12:20   0.73   85.0    15    5.2    57    10.7   971.5    0.00 
  40   12:30   0.72   86.4    14    5.0    70    10.8   971.3    0.00 
  40   12:40   0.72   86.4    14    3.9    66     8.4   971.1    0.00 
  40   12:50   0.71   87.2    14    4.4    78     9.4   971.0    0.00 
  40   13:00   0.70   87.7    13    3.6    60     6.3   970.9    0.00 
  40   13:10   0.69   88.2    13    2.9    69     7.3   970.8    0.00 
  40   13:20   0.68   86.5    14    3.9    68     8.7   970.7    0.00 
  40   13:30   0.67   86.3    14    5.3    91    13.5   970.6    0.00 
  40   13:40   0.65   87.1    14    4.8   116    10.9   970.6    0.00 
  40   13:50   0.64   87.1    14    4.1   121     9.0   970.5    0.00 
  40   14:00   0.62   87.3    13    4.7   136    10.9   970.5    0.00 
  40   14:10   0.60   87.5    13    5.1   136    10.1   970.5    0.00 
  40   14:20   0.57   88.3    13    5.2   136     8.7   970.6    0.00 
  40   14:30   0.56   88.2    12    4.7   148     9.3   970.6    0.00 
  40   14:40   0.54   87.3    12    4.8   156     9.9   970.6    0.00 
  40   14:50   0.51   88.1    12    4.5   166     8.8   970.6    0.00 
  40   15:00   0.44   87.6    12    4.4   156     9.5   970.5    0.00 
  40   15:10   0.34   86.5    12    4.3   150     9.0   970.4    0.00 
  40   15:20   0.42   86.5    12    5.1   149     9.4   970.3    0.00 
  40   15:30   0.30   84.7    12    4.8   149     7.8   970.2    0.00 
  40   15:40   0.40   85.7    11    3.8   148     6.4   970.1    0.00 
  40   15:50   0.29   87.0    10    3.4   156     6.8   970.1    0.00 
  40   16:00   0.29   84.2    11    4.4   176     6.8   970.1    0.00 
  40   16:10   0.19   83.9    12    4.5   149     6.8   969.9    0.00 
  40   16:20   0.15   82.1    14    4.2   144     6.6   969.7    0.00 
  40   16:30   0.20   81.5    12    4.8   153     6.1   969.6    0.00 
  40   16:40   0.13   80.4    12    4.7   188     6.4   969.7    0.00 
  40   16:50   0.13   79.8    13    5.5   207     7.7   969.7    0.00 
  40   17:00   0.09   79.2    14    5.4   225     7.0   969.7    0.00 
  40   17:10   0.06   78.2    13    5.5   220     6.2   969.6    0.00 
  40   17:20   0.03   76.6    14    6.4   225     7.5   969.7    0.00 
  40   17:30   0.01   75.3    14    7.7   236     9.4   969.6    0.00 
  40   17:40   0.00   73.6    17    9.1   246    10.5   969.6    0.00 
  40   17:50   0.00   72.2    18   10.1   254    11.0   969.6    0.00 
  40   18:00   0.00   71.7    18   11.2   263    12.8   969.8    0.00 
  40   18:10   0.00   71.3    20   10.8   283    14.1   970.1    0.00 
  40   18:20   0.00   70.4    20    9.8   337    13.4   970.3    0.00 
  40   18:30   0.00   70.2    19   10.8   359    12.2   970.5    0.00 
  40   18:40   0.00   69.2    20    9.2    12    11.5   970.7    0.00 
  40   18:50   0.00   68.3    21    8.9    19    10.3   970.7    0.00 
  40   19:00   0.00   67.7    22    8.4    24     9.4   970.7    0.00 
  40   19:10   0.00   67.2    22    8.2    20     9.8   970.8    0.00 
  40   19:20   0.00   67.8    21    8.2     5    10.2   970.9    0.00 
  40   19:30   0.00   68.7    19    7.6   357     9.7   970.8    0.00 
  40   19:40   0.00   71.4    16    7.6   352     9.6   970.7    0.00 
  40   19:50   0.00   70.3    18    7.4    15     9.3   970.8    0.00 
  40   20:00   0.00   68.1    21    7.9    23    10.0   970.8    0.00 
  40   20:10   0.00   68.0    20    6.2    18     7.5   970.7    0.00 
  40   20:20   0.00   69.3    19    9.4   360    12.4   970.9    0.00 
  40   20:30   0.00   68.1    20    8.8    25    11.5   970.9    0.00 
  40   20:40   0.00   69.4    18    9.3     3    13.2   970.9    0.00 
  40   20:50   0.00   69.5    19    7.3    15    11.6   970.9    0.00 
  40   21:00   0.00   69.1    19    5.3   352    10.3   970.9    0.00 
  40   21:10   0.00   69.8    18    9.4     2    14.2   971.0    0.00 
  40   21:20   0.00   67.4    21    8.2    12    10.9   971.1    0.00 
  40   21:30   0.00   71.0    17    9.1   328    11.0   971.1    0.00 
  40   21:40   0.00   71.7    16    9.5   338    12.6   971.0    0.00 
  40   21:50   0.00   71.2    16   10.7   338    14.0   971.1    0.00 
  40   22:00   0.00   70.5    17    9.8   342    13.7   971.1    0.00 
  40   22:10   0.00   71.2    16   10.2   329    13.4   971.1    0.00 
  40   22:20   0.00   71.5    16    8.8   323    10.7   971.2    0.00 
  40   22:30   0.00   71.9    16    7.6   312    10.2   971.3    0.00 
  40   22:40   0.00   72.7    15    8.4   325    10.7   971.3    0.00 
  40   22:50   0.00   72.1    16    9.0   345    11.6   971.2    0.00 
  40   23:00   0.00   71.4    16   11.6   332    14.9   971.2    0.00 
  40   23:10   0.00   72.1    15   11.7   321    13.7   971.3    0.00 
  40   23:20   0.00   72.6    14   12.0   325    15.1   971.3    0.00 
  40   23:30   0.00   72.5    14   10.1   338    13.7   971.3    0.00 
  40   23:40   0.00   71.7    15   11.2   347    14.0   971.2    0.00 
  40   23:50   0.00   71.3    16   11.2   346    15.3   971.3    0.00 
  41    0:00   0.00   72.1    16   11.8   335    14.8   971.3    0.00 
  41    0:10   0.00   72.3    16   11.5   334    14.0   971.3    0.00 
  41    0:20   0.00   72.6    16   12.5   340    15.2   971.3    0.00 
  41    0:30   0.00   72.4    16   11.4   341    13.3   971.3    0.00 
  41    0:40   0.00   72.7    16   11.4   338    13.6   971.3    0.00 
  41    0:50   0.00   72.8    16   12.0   339    14.8   971.3    0.00 
  41    1:00   0.00   72.6    16   13.2   346    14.9   971.2    0.00 
  41    1:10   0.00   72.2    16   12.5   352    14.7   971.1    0.00 
  41    1:20   0.00   70.8    18   11.9     3    14.7   971.1    0.00 
  41    1:30   0.00   70.4    19   12.1   358    14.5   971.2    0.00 
  41    1:40   0.00   70.6    19   11.7   357    14.0   971.2    0.00 
  41    1:50   0.00   71.1    19   11.4   347    14.3   971.3    0.00 
  41    2:00   0.00   72.0    18   11.7   348    14.7   971.2    0.00 
  41    2:10   0.00   71.9    18   11.2   350    13.7   971.2    0.00 
  41    2:20   0.00   72.3    18   11.2   348    13.9   971.1    0.00 
  41    2:30   0.00   71.7    18   10.2     4    12.1   971.1    0.00 
  41    2:40   0.00   71.1    18   11.1     9    13.2   971.1    0.00 
  41    2:50   0.00   70.8    19   11.2     4    14.0   971.0    0.00 
  41    3:00   0.00   71.0    19   11.0     0    13.5   970.9    0.00 
  41    3:10   0.00   70.2    20   10.8    16    12.8   970.8    0.00 
  41    3:20   0.00   70.1    20   10.8    12    14.1   970.8    0.00 
  41    3:30   0.00   70.2    20   10.7     7    12.1   970.6    0.00 
  41    3:40   0.00   71.1    19   11.2   356    12.9   970.6    0.00 
  41    3:50   0.00   72.3    18   11.7   344    14.1   970.6    0.00 
  41    4:00   0.00   73.2    18   12.0   344    14.8   970.6    0.00 
  41    4:10   0.00   72.9    18   10.9   342    13.7   970.6    0.00 
  41    4:20   0.00   73.3    17   11.7   345    14.3   970.6    0.00 
  41    4:30   0.00   73.4    17   11.1   345    13.8   970.6    0.00 
  41    4:40   0.00   73.3    17   10.7   348    13.3   970.7    0.00 
  41    4:50   0.00   73.0    18   11.1   353    13.2   970.6    0.00 
  41    5:00   0.00   73.2    18   11.8   350    13.8   970.5    0.00 
  41    5:10   0.00   72.8    18   11.1   354    13.2   970.5    0.00 
  41    5:20   0.00   72.7    18   10.9   356    12.6   970.5    0.00 
  41    5:30   0.00   71.7    19    9.8     9    12.1   970.5    0.00 
  41    5:40   0.00   70.7    20   10.0    20    11.4   970.6    0.00 
  41    5:50   0.00   70.7    20    9.6    14    10.5   970.6    0.00 
  41    6:00   0.00   71.5    19   10.2    11    11.0   970.7    0.00 
  41    6:10   0.00   72.2    18   10.6     6    11.4   970.8    0.00 
  41    6:20   0.00   72.8    18   10.0     4    11.2   970.9    0.00 
  41    6:30   0.00   73.1    18    8.1    12     8.9   971.0    0.00 
  41    6:40   0.00   73.1    18    7.7    12     8.0   971.1    0.00 
  41    6:50   0.00   73.6    18    7.0    14     7.6   971.1    0.00 
  41    7:00   0.01   73.1    18    6.5    16     6.8   971.2    0.00 
  41    7:10   0.01   73.2    18    6.7     8     7.8   971.3    0.00 
  41    7:20   0.05   73.4    18    7.1     3     8.3   971.4    0.00 
  41    7:30   0.11   72.4    19    7.1     3     9.3   971.5    0.00 
  41    7:40   0.15   71.5    19    9.0   350    10.2   971.6    0.00 
  41    7:50   0.18   72.1    19    7.1    10     9.0   971.7    0.00 
  41    8:00   0.22   72.6    19    5.4    22     7.0   971.7    0.00 
  41    8:10   0.25   73.2    19    3.2    48     4.5   971.8    0.00 
  41    8:20   0.29   74.0    18    1.4    73     2.4   971.9    0.00 
  41    8:30   0.32   74.9    18    1.3    84     2.9   971.9    0.00 
  41    8:40   0.35   75.4    20    2.4   131     5.6   971.8    0.00 
  41    8:50   0.39   76.3    20    3.3   126     5.7   971.8    0.00 
  41    9:00   0.42   77.3    20    4.4   134     6.2   972.0    0.00 
  41    9:10   0.45   77.0    20    4.7   146     7.4   972.0    0.00 
  41    9:20   0.48   75.5    20    4.4   161     6.8   972.0    0.00 
  41    9:30   0.50   76.2    19    4.3   151     7.8   972.2    0.00 
  41    9:40   0.53   77.4    18    4.9   165     8.0   972.2    0.00 
  41    9:50   0.55   77.4    18    5.6   173     8.0   972.3    0.00 

Return to Valley Peak, Santa Cruz Island Reserve graphs page.


Western Regional Climate Center,wrcc@dri.edu